Latest Weather Observations for Avalon

IDV60901

Issued at 11:41 am EST Tuesday 21 April 2015 (issued every 10 minutes, with the page automatically refreshed every 10 minutes)

About weather observations | Map of Melbourne area stations | Latest observations for Melbourne area | Other Formats
Station Details ID: 087113 Name: AVALON AIRPORT Lat: -38.03 Lon: 144.48 Height: 10.6 m
Data from the previous 72 hours. | See also: Recent months at Avalon
Date/Time
EST
Tmp

°C
App
Tmp
°C
Dew
Point
°C
Rel
Hum
%
Delta-T

°C
Wind Press
QNH
hPa
Press
MSL
hPa
Rain
since
9 am
mm
Dir
 
Spd
km/h
Gust
km/h
Spd
kts
Gust
kts
21/11:30am 17.2 10.7 9.1 59 4.2 S 33 41 18 22 1032.3 1032.3 0.0
21/11:00am 17.1 11.0 9.8 62 3.8 S 32 41 17 22 1032.6 1032.6 0.0
21/10:30am 16.9 11.1 9.6 62 3.8 SSE 30 37 16 20 1032.7 1032.7 0.0
21/10:00am 14.9 12.4 9.7 71 2.7 SE 13 20 7 11 1033.0 1033.0 0.0
21/09:30am 13.8 11.8 10.0 78 2.0 E 11 13 6 7 1033.2 1033.2 0.0
21/09:00am 14.6 13.2 10.8 78 2.0 ESE 9 15 5 8 1033.3 1033.3 0.0
21/08:30am 11.5 11.5 9.9 90 0.8 CALM 0 0 0 0 1033.5 1033.5 0.0
21/08:00am 9.7 9.1 8.8 94 0.4 WNW 2 6 1 3 1033.6 1033.6 0.0
21/07:30am 8.0 6.2 7.1 94 0.4 WNW 6 9 3 5 1033.5 1033.5 0.0
21/07:00am 7.4 4.9 6.5 94 0.4 WNW 9 11 5 6 1033.4 1033.4 0.0
21/06:30am 7.1 4.5 6.0 93 0.5 NW 9 11 5 6 1033.3 1033.3 0.0
21/06:00am 7.4 4.9 6.5 94 0.4 NW 9 11 5 6 1033.3 1033.3 0.0
21/05:30am 6.9 4.3 6.0 94 0.4 NW 9 13 5 7 1033.0 1033.0 0.0
21/05:00am 6.2 3.3 4.8 91 0.6 NW 9 11 5 6 1032.8 1032.8 0.0
21/04:30am 7.8 5.3 6.6 92 0.6 NW 9 11 5 6 1033.0 1033.0 0.0
21/04:00am 7.4 4.4 6.2 92 0.5 NNW 11 11 6 6 1033.0 1033.0 0.0
21/03:30am 7.6 5.0 6.2 91 0.6 NNW 9 11 5 6 1033.2 1033.2 0.0
21/03:00am 7.7 5.1 6.2 90 0.7 NW 9 13 5 7 1033.5 1033.5 0.0
21/02:30am 8.0 6.1 6.5 90 0.7 NW 6 9 3 5 1033.9 1033.9 0.0
21/02:00am 8.2 6.0 6.3 88 0.9 NW 7 9 4 5 1034.3 1034.3 0.0
21/01:30am 9.0 8.2 6.3 83 1.2 CALM 0 6 0 3 1034.5 1034.5 0.0
21/01:00am 9.9 8.0 6.6 80 1.5 E 6 7 3 4 1034.6 1034.6 0.0
21/12:30am 10.3 7.4 6.5 77 1.8 ESE 11 13 6 7 1034.6 1034.6 0.0
21/12:00am 11.6 8.4 6.9 73 2.2 ESE 13 17 7 9 1034.7 1034.7 0.0
 
Date/Time
EST
Tmp

°C
App
Tmp
°C
Dew
Point
°C
Rel
Hum
%
Delta-T

°C
Wind Press
QNH
hPa
Press
MSL
hPa
Rain
since
9 am
mm
Dir
 
Spd
km/h
Gust
km/h
Spd
kts
Gust
kts
20/11:30pm 11.9 8.2 6.4 69 2.6 ESE 15 17 8 9 1035.0 1035.0 0.0
20/11:00pm 12.4 8.8 6.7 68 2.7 SE 15 19 8 10 1035.2 1035.2 0.0
20/10:30pm 11.9 8.2 6.4 69 2.6 SE 15 19 8 10 1035.4 1035.4 0.0
20/10:00pm 11.2 7.5 6.1 71 2.4 SE 15 20 8 11 1035.6 1035.6 0.0
20/09:30pm 11.5 7.8 6.2 70 2.5 SSE 15 20 8 11 1035.6 1035.6 0.0
20/09:00pm 10.9 6.8 6.1 72 2.2 SSE 17 19 9 10 1035.6 1035.6 0.0
20/08:30pm 11.1 7.0 6.0 71 2.4 SSE 17 20 9 11 1035.6 1035.6 0.0
20/08:00pm 11.4 7.4 6.5 72 2.3 SSE 17 20 9 11 1035.5 1035.5 0.0
20/07:30pm 11.2 7.1 6.1 71 2.4 S 17 20 9 11 1035.5 1035.5 0.0
20/07:00pm 11.6 7.5 6.3 70 2.5 SSE 17 22 9 12 1035.5 1035.5 0.0
20/06:30pm 12.3 8.3 6.8 69 2.6 SSE 17 24 9 13 1035.4 1035.4 0.0
20/06:00pm 12.8 7.4 6.4 65 3.0 SSE 24 30 13 16 1035.3 1035.3 0.0
20/05:30pm 13.5 8.4 6.1 61 3.5 SSE 22 30 12 16 1035.2 1035.2 0.0
20/05:00pm 13.6 7.8 6.2 61 3.5 SSE 26 32 14 17 1035.1 1035.1 0.0
20/04:30pm 14.0 8.2 6.1 59 3.8 SSE 26 33 14 18 1035.0 1035.0 0.0
20/04:00pm 15.2 9.4 6.2 55 4.3 SSE 26 35 14 19 1035.0 1035.0 0.0
20/03:30pm 15.0 9.1 6.0 55 4.3 SSE 26 35 14 19 1035.1 1035.1 0.0
20/03:00pm 15.8 9.4 5.4 50 4.9 SSE 28 35 15 19 1035.1 1035.1 0.0
20/02:30pm 15.4 8.5 4.5 48 5.1 SSE 30 39 16 21 1035.1 1035.1 0.0
20/02:00pm 15.7 8.9 5.0 49 5.0 SSE 30 37 16 20 1035.1 1035.1 0.0
20/01:30pm 15.1 8.6 4.5 49 4.9 SSE 28 35 15 19 1035.3 1035.3 0.0
20/01:00pm 16.1 10.1 5.4 49 5.1 SSE 26 35 14 19 1035.4 1035.4 0.0
20/12:30pm 15.5 10.0 4.2 47 5.2 SE 22 30 12 16 1035.9 1035.9 0.0
20/12:00pm 15.6 9.6 3.1 43 5.6 SSE 24 32 13 17 1036.4 1036.4 0.0
20/11:30am 15.5 9.7 4.2 47 5.2 SSE 24 33 13 18 1036.8 1036.8 0.0
20/11:00am 15.4 9.7 4.8 49 4.9 SE 24 32 13 17 1037.0 1037.0 0.0
20/10:30am 15.1 9.8 4.8 50 4.8 SSE 22 28 12 15 1037.1 1037.1 0.0
20/10:00am 15.0 10.5 6.0 55 4.3 SSE 19 26 10 14 1037.2 1037.2 0.0
20/09:30am 14.3 10.2 6.4 59 3.8 SSE 17 24 9 13 1037.2 1037.2 0.0
20/09:00am 12.9 9.9 7.8 71 2.5 WSW 13 17 7 9 1037.4 1037.4 -
20/08:30am 11.7 8.8 8.2 79 1.7 WSW 13 17 7 9 1037.4 1037.4 -
20/08:00am 10.8 8.4 8.6 86 1.1 W 11 15 6 8 1037.2 1037.2 -
20/07:30am 7.6 5.1 6.5 93 0.5 NW 9 11 5 6 1036.9 1036.9 -
20/07:00am 6.1 2.9 4.9 92 0.5 NW 11 13 6 7 1036.8 1036.8 -
20/06:30am 7.1 4.0 5.7 91 0.6 WNW 11 13 6 7 1036.6 1036.6 -
20/06:00am 7.3 3.9 5.8 90 0.7 WNW 13 15 7 8 1036.3 1036.3 -
20/05:30am 7.9 5.2 5.5 85 1.1 WNW 9 13 5 7 1036.0 1036.0 -
20/05:00am 9.6 6.0 6.9 83 1.3 S 15 19 8 10 1035.7 1035.7 -
20/04:30am 7.6 5.3 5.6 87 0.9 WNW 7 11 4 6 1035.7 1035.7 -
20/04:00am 7.9 4.0 5.4 84 1.1 W 15 19 8 10 1035.5 1035.5 -
20/03:30am 8.8 5.0 5.9 82 1.3 S 15 17 8 9 1035.2 1035.2 -
20/03:00am 9.1 5.3 5.8 80 1.5 S 15 20 8 11 1035.3 1035.3 1.0
20/02:30am 9.8 4.9 6.7 81 1.5 SSE 22 32 12 17 1035.6 1035.6 -
20/02:00am 9.5 5.0 6.2 80 1.5 SSE 19 28 10 15 1035.6 1035.6 -
20/01:30am 10.0 5.5 6.9 81 1.5 SSE 20 28 11 15 1035.6 1035.6 -
20/01:00am 10.0 6.4 6.9 81 1.4 SSE 15 20 8 11 1035.5 1035.5 -
20/12:30am 10.1 5.2 6.8 80 1.6 SE 22 26 12 14 1035.6 1035.6 -
20/12:00am 9.9 5.4 5.9 76 1.8 S 19 28 10 15 1035.5 1035.5 -
 
Date/Time
EST
Tmp

°C
App
Tmp
°C
Dew
Point
°C
Rel
Hum
%
Delta-T

°C
Wind Press
QNH
hPa
Press
MSL
hPa
Rain
since
9 am
mm
Dir
 
Spd
km/h
Gust
km/h
Spd
kts
Gust
kts
19/11:30pm 9.1 4.6 6.0 81 1.4 SE 19 32 10 17 1035.7 1035.7 -
19/11:00pm 10.5 2.4 3.5 62 3.0 SSW 35 44 19 24 1035.6 1035.6 -
19/10:54pm 10.7 3.7 4.0 63 3.0 S 30 44 16 24 1035.6 1035.6 -
19/10:30pm 10.3 6.4 5.3 71 2.3 SSE 15 22 8 12 1035.5 1035.5 -
19/10:00pm 10.4 4.2 4.3 66 2.7 S 26 33 14 18 1035.3 1035.3 -
19/09:30pm 10.1 2.7 4.9 70 2.3 S 33 56 18 30 1035.4 1035.4 -
19/09:25pm 11.3 4.6 3.6 59 3.4 S 28 56 15 30 1035.3 1035.3 -
19/09:00pm 10.8 5.1 2.6 57 3.5 S 22 30 12 16 1034.8 1034.8 -
19/08:30pm 11.4 5.6 4.2 61 3.2 S 24 33 13 18 1034.5 1034.5 -
19/08:00pm 11.1 5.2 4.1 62 3.1 S 24 32 13 17 1034.1 1034.1 -
19/07:30pm 11.3 5.3 3.3 58 3.5 S 24 32 13 17 1033.8 1033.8 -
19/07:00pm - - - - - - - - - - - - -
19/06:30pm 10.4 5.5 5.2 70 2.4 SSW 20 30 11 16 1032.9 1032.9 0.6
19/06:00pm 10.9 5.4 5.7 70 2.4 SSW 24 32 13 17 1032.4 1032.4 0.6
19/05:30pm 11.9 4.6 4.6 61 3.3 S 32 41 17 22 1032.0 1032.0 0.6
19/05:00pm 11.9 5.3 4.4 60 3.4 S 28 39 15 21 1031.7 1031.7 0.6
19/04:30pm 12.0 4.2 4.7 61 3.3 S 35 48 19 26 1031.3 1031.3 0.6
19/04:00pm 11.7 4.6 5.3 65 2.9 SSW 32 41 17 22 1031.1 1031.1 0.6
19/03:30pm 11.3 7.1 8.2 81 1.5 S 20 35 11 19 1030.8 1030.8 0.4
19/03:22pm 10.0 1.8 6.7 80 1.5 SSW 39 57 21 31 1030.9 1030.9 0.4
19/03:00pm 13.4 5.8 5.6 59 3.6 SSW 35 43 19 23 1030.3 1030.3 0.2
19/02:30pm 13.3 4.9 5.5 59 3.7 SSW 39 48 21 26 1030.2 1030.2 0.2
19/02:00pm 14.6 5.9 4.3 50 4.7 SSW 39 52 21 28 1029.8 1029.8 0.2
19/01:30pm 14.4 6.5 4.4 51 4.6 SSW 35 46 19 25 1029.5 1029.5 0.2
19/01:00pm 13.2 6.3 7.4 68 2.8 S 33 43 18 23 1029.4 1029.4 0.2
19/12:30pm 12.5 5.5 8.4 76 2.0 S 35 46 19 25 1029.3 1029.3 0.2
19/12:00pm 14.0 5.4 6.4 60 3.6 SSW 41 54 22 29 1029.0 1029.0 0.0
19/11:30am 14.5 5.9 6.6 59 3.8 SSW 41 50 22 27 1028.7 1028.7 0.0
19/11:00am 14.3 6.9 6.6 60 3.7 SSW 35 48 19 26 1028.3 1028.3 0.0
19/10:44am 13.1 6.1 6.2 63 3.3 SSW 32 48 17 26 1028.2 1028.2 0.0
19/10:30am 11.7 7.0 7.8 77 1.9 SW 22 30 12 16 1028.2 1028.2 0.0
19/10:00am 11.1 6.5 8.3 83 1.4 W 22 32 12 17 1027.9 1027.9 0.0
19/09:30am 10.3 6.3 8.2 87 1.0 WSW 19 24 10 13 1027.6 1027.6 0.0
19/09:00am 8.8 5.2 6.9 88 0.9 WSW 15 24 8 13 1027.3 1027.3 2.6
19/08:30am 8.9 4.1 7.2 89 0.8 W 22 30 12 16 1026.4 1026.4 1.8
19/08:00am 8.9 4.5 7.2 89 0.8 W 20 35 11 19 1026.1 1026.1 1.6
19/07:30am 8.5 5.7 6.8 89 0.8 W 11 15 6 8 1025.3 1025.3 1.6
19/07:00am 8.9 3.6 7.0 88 0.9 SW 24 30 13 16 1024.5 1024.5 1.6
19/06:30am 8.6 2.9 6.6 87 0.9 SW 26 44 14 24 1023.6 1023.6 1.0
19/06:00am 8.8 2.6 6.1 83 1.2 WSW 28 35 15 19 1023.1 1023.1 0.4
19/05:38am 8.7 2.6 6.5 86 1.0 WSW 28 44 15 24 1022.8 1022.8 0.4
19/05:30am 7.8 2.7 6.1 89 0.8 W 22 28 12 15 1022.5 1022.5 0.4
19/05:00am 8.1 3.0 6.2 88 0.9 W 22 26 12 14 1021.8 1021.8 0.4
19/04:30am 8.6 4.6 6.6 87 0.9 W 17 24 9 13 1021.5 1021.5 0.4
19/04:00am 8.4 3.8 6.4 87 0.9 W 20 24 11 13 1020.8 1020.8 0.4
19/03:30am 8.2 4.1 6.2 87 0.9 WNW 17 24 9 13 1020.2 1020.2 0.4
19/03:00am 8.6 4.0 6.7 88 0.9 WNW 20 26 11 14 1020.1 1020.1 0.4
19/02:30am 8.5 5.2 6.6 88 0.9 W 13 17 7 9 1020.0 1020.0 0.4
19/02:00am 8.9 5.8 7.2 89 0.8 W 13 17 7 9 1019.8 1019.8 0.4
19/01:30am 9.0 6.4 7.6 91 0.7 W 11 17 6 9 1019.5 1019.5 0.4
19/01:00am 9.5 5.8 7.9 90 0.8 WNW 17 20 9 11 1019.4 1019.4 0.4
19/12:30am 9.6 6.7 8.2 91 0.7 W 13 19 7 10 1018.9 1018.9 0.4
19/12:00am 10.2 5.7 8.6 90 0.8 W 22 26 12 14 1018.4 1018.4 0.4
 
Date/Time
EST
Tmp

°C
App
Tmp
°C
Dew
Point
°C
Rel
Hum
%
Delta-T

°C
Wind Press
QNH
hPa
Press
MSL
hPa
Rain
since
9 am
mm
Dir
 
Spd
km/h
Gust
km/h
Spd
kts
Gust
kts
18/11:30pm 10.7 7.0 9.3 91 0.7 W 19 26 10 14 1018.2 1018.2 0.4
18/11:00pm 10.9 7.0 9.5 91 0.7 WNW 20 24 11 13 1018.2 1018.2 0.4
18/10:30pm 11.4 7.7 10.0 91 0.7 WNW 20 28 11 15 1018.0 1018.0 0.4
18/10:00pm 11.5 8.0 10.2 92 0.7 WNW 19 24 10 13 1017.6 1017.6 0.4
18/09:30pm 11.6 8.5 10.3 92 0.7 WNW 17 22 9 12 1017.3 1017.3 0.2
18/09:00pm 11.6 8.5 10.3 92 0.7 WNW 17 24 9 13 1016.7 1016.7 0.2
18/08:30pm 11.5 7.8 10.2 92 0.7 W 20 26 11 14 1016.4 1016.4 0.0
18/08:00pm 11.7 8.0 10.1 90 0.8 W 20 30 11 16 1015.9 1015.9 0.0
18/07:30pm 11.7 5.2 8.9 83 1.4 WSW 33 46 18 25 1015.8 1015.8 0.0
18/07:15pm 12.5 5.6 9.0 79 1.8 WSW 35 54 19 29 1015.5 1015.5 0.0
18/07:00pm 13.0 8.1 9.8 81 1.6 W 26 37 14 20 1015.0 1015.0 0.0
18/06:30pm 13.6 7.6 10.2 80 1.8 WSW 32 43 17 23 1014.1 1014.1 0.0
18/06:13pm 14.3 8.2 9.7 74 2.4 WSW 32 50 17 27 1013.5 1013.5 0.0
18/06:00pm 14.4 8.7 11.2 81 1.7 SSW 32 39 17 21 1013.0 1013.0 0.0
18/05:30pm 17.2 10.9 11.0 67 3.3 SW 35 52 19 28 1011.9 1011.9 0.0
18/05:21pm 18.4 12.3 10.3 59 4.3 W 33 52 18 28 1011.3 1011.3 0.0
18/05:18pm 19.6 13.9 9.8 53 5.2 W 30 52 16 28 1011.0 1011.0 0.0
18/05:00pm 20.0 15.5 9.9 52 5.4 W 24 32 13 17 1010.6 1010.6 0.0
18/04:30pm 20.3 13.9 9.5 50 5.8 W 33 44 18 24 1010.4 1010.4 0.0
18/04:00pm 21.2 13.6 9.1 46 6.4 WNW 39 50 21 27 1010.1 1010.1 0.0
18/03:30pm 21.0 14.5 8.9 46 6.4 WNW 33 41 18 22 1010.0 1010.0 0.0
18/03:17pm 21.0 14.6 8.6 45 6.5 WNW 32 50 17 27 1009.9 1009.9 0.0
18/03:00pm 22.1 16.8 9.9 46 6.6 WNW 28 41 15 22 1010.1 1010.1 0.0
18/02:30pm 20.7 14.2 9.0 47 6.2 WNW 33 43 18 23 1010.5 1010.5 0.0
18/02:00pm 21.4 16.1 9.9 48 6.2 WNW 28 41 15 22 1010.6 1010.6 0.0
18/01:30pm 20.2 15.0 8.8 48 6.0 NW 26 39 14 21 1011.1 1011.1 0.0
18/01:00pm 19.9 14.9 9.5 51 5.5 WNW 26 35 14 19 1011.4 1011.4 0.0
18/12:30pm 18.7 12.3 9.2 54 5.0 WNW 33 41 18 22 1012.2 1012.2 0.0
18/12:00pm 18.3 12.2 9.6 57 4.6 WNW 32 44 17 24 1012.8 1012.8 0.0

Latest Capital City Observations: Canberra | Sydney | Melbourne | Brisbane | Adelaide | Perth | Hobart | Darwin

Other Formats:

Comma delimited format used in spreadsheet applications
http://www.bom.gov.au/fwo/IDV60901/IDV60901.94854.axf

JavaScript Object Notation format (JSON) in row-major order
http://www.bom.gov.au/fwo/IDV60901/IDV60901.94854.json